Dong Fang Chun — BRZL — position and weather

sailwx.info

Track history (hours):
 
Tides and Currents Weather Stations Pressure Air Temp Water Temp Dewpoint Dewpoint Depression Visibility Wind Speed Wind Dir Waves Ship Positions

Dong Fang Chun

Last reported at 2014-Oct-26 06:33 UTC. Time now 2014-Oct-26 07:00 UTC.
Position N 22°16' E 113°39'.

Length 23 m; draft 1.4 m.

Type: High speed craft. MMSI: 412461320.

Date/timePositionNaut miles runAvg speedWind from/ knotsBaromVisibWave heightAir tempDewpointWater temp
2014-Oct-26 06:33N 22°16' E 113°39'1919.2
2014-Oct-26 05:33N 22°29' E 113°55'2019.8
2014-Oct-26 04:33N 22°16' E 113°38'10 9.8
2014-Oct-26 03:33N 22°21' E 113°47'9 9.1
2014-Oct-26 02:33N 22°27' E 113°54'2216.0
2014-Oct-26 01:12N 22°14' E 113°35'1320.3
2014-Oct-26 00:33N 22°21' E 113°47'1010.0
2014-Oct-25 23:33N 22°29' E 113°55'0 0.0
2014-Oct-25 22:33N 22°29' E 113°55'0 0.0
2014-Oct-25 21:33N 22°29' E 113°55'0 0.0
2014-Oct-25 20:33N 22°29' E 113°55'0 0.0
2014-Oct-25 19:33N 22°29' E 113°55'0 0.0
2014-Oct-25 18:33N 22°29' E 113°55'0 0.0
2014-Oct-25 17:33N 22°29' E 113°55'0 0.0
2014-Oct-25 16:33N 22°29' E 113°55'0 0.0
2014-Oct-25 15:33N 22°29' E 113°55'0 0.0
2014-Oct-25 14:33N 22°29' E 113°55'4 2.2
2014-Oct-25 12:32N 22°24' E 113°54'4 2.2
2014-Oct-25 10:33N 22°29' E 113°55'0 0.0
2014-Oct-25 08:34N 22°29' E 113°55'0 0.1
2014-Oct-25 07:33N 22°29' E 113°55'0 0.0
2014-Oct-25 06:33N 22°29' E 113°55'1514.4
2014-Oct-25 05:30N 22°19' E 113°42'6 6.4
2014-Oct-25 04:34N 22°15' E 113°37'2121.1
2014-Oct-25 03:33N 22°29' E 113°55'1513.5
2014-Oct-25 02:28N 22°19' E 113°43'5 5.5
2014-Oct-25 01:31N 22°16' E 113°38'2020.4
2014-Oct-25 00:33N 22°29' E 113°55'0 0.1
2014-Oct-24 23:33N 22°29' E 113°55'0 0.0
2014-Oct-24 22:33N 22°29' E 113°55'0 0.0
2014-Oct-24 21:33N 22°29' E 113°55'0 0.0
2014-Oct-24 20:33N 22°29' E 113°55'0 0.0
2014-Oct-24 19:32N 22°29' E 113°55'0 0.0
2014-Oct-24 18:33N 22°29' E 113°55'0 0.0
2014-Oct-24 17:33N 22°29' E 113°55'0 0.0
2014-Oct-24 16:33N 22°29' E 113°55'0 0.0
2014-Oct-24 15:33N 22°29' E 113°55'0 0.0
2014-Oct-24 14:33N 22°29' E 113°55'2 1.2
2014-Oct-24 12:33N 22°26' E 113°54'2 1.2
2014-Oct-24 10:34N 22°29' E 113°55'0 0.0
2014-Oct-24 08:33N 22°29' E 113°55'3 3.4
2014-Oct-24 07:33N 22°26' E 113°53'2020.1
2014-Oct-24 06:33N 22°14' E 113°35'1212.3
2014-Oct-24 05:33N 22°21' E 113°47'9 8.8
2014-Oct-24 04:33N 22°27' E 113°54'2120.7
2014-Oct-24 03:33N 22°14' E 113°35'1212.5
2014-Oct-24 02:33N 22°21' E 113°47'1110.7
2014-Oct-24 01:33N 22°29' E 113°55'5 3.1
2014-Oct-24 00:05N 22°24' E 113°54'5 8.8
2014-Oct-23 23:33N 22°29' E 113°55'0 0.0
2014-Oct-23 22:33N 22°29' E 113°55'0 0.0
2014-Oct-23 21:33N 22°29' E 113°55'0 0.0
2014-Oct-23 20:33N 22°29' E 113°55'0 0.0
2014-Oct-23 19:33N 22°29' E 113°55'0 0.0
2014-Oct-23 18:33N 22°29' E 113°55'0 0.0
2014-Oct-23 17:33N 22°29' E 113°55'0 0.0
2014-Oct-23 16:34N 22°29' E 113°55'0 0.0
2014-Oct-23 15:33N 22°29' E 113°55'0 0.0
2014-Oct-23 14:33N 22°29' E 113°55'4 1.9
2014-Oct-23 12:32N 22°25' E 113°54'4 2.0
2014-Oct-23 10:34N 22°29' E 113°55'0 0.0
2014-Oct-23 08:33N 22°29' E 113°55'0 0.1
2014-Oct-23 07:33N 22°29' E 113°55'4 4.4
2014-Oct-23 06:34N 22°25' E 113°52'1918.8
2014-Oct-23 05:33N 22°14' E 113°35'1212.4
2014-Oct-23 04:34N 22°21' E 113°46'9 8.6
2014-Oct-23 03:33N 22°26' E 113°54'2120.8
2014-Oct-23 02:33N 22°14' E 113°35'1312.9
2014-Oct-23 01:33N 22°21' E 113°47'1010.3
2014-Oct-23 00:33N 22°29' E 113°55'0 0.0
2014-Oct-22 23:33N 22°29' E 113°55'0 0.0
2014-Oct-22 22:33N 22°29' E 113°55'0 0.0
2014-Oct-22 21:33N 22°29' E 113°55'0 0.0
2014-Oct-22 20:33N 22°29' E 113°55'0 0.0
2014-Oct-22 12:19N 22°29' E 113°55'2 2.8
2014-Oct-22 11:33N 22°27' E 113°54'2120.9
2014-Oct-22 10:33N 22°14' E 113°35'0 0.0
2014-Oct-22 09:33N 22°14' E 113°35'1212.6
2014-Oct-22 08:33N 22°21' E 113°47'7 6.6
2014-Oct-22 07:33N 22°25' E 113°52'1919.1
2014-Oct-22 06:33N 22°14' E 113°35'1212.1
2014-Oct-22 05:32N 22°21' E 113°47'7 7.1
2014-Oct-22 04:33N 22°25' E 113°53'1918.3
2014-Oct-22 03:30N 22°14' E 113°35'1313.8
2014-Oct-22 02:33N 22°21' E 113°47'7 7.4
2014-Oct-22 01:33N 22°26' E 113°53'2020.4
2014-Oct-22 00:33N 22°14' E 113°35'0 0.0
2014-Oct-21 23:31N 22°15' E 113°35'0 0.0
2014-Oct-21 22:33N 22°15' E 113°35'0 0.0
2014-Oct-21 21:33N 22°15' E 113°35'0 0.0
2014-Oct-21 20:25N 22°15' E 113°35'0 0.0
2014-Oct-21 19:33N 22°15' E 113°35'0 0.0
2014-Oct-21 18:09N 22°15' E 113°35'0 0.0
2014-Oct-21 17:33N 22°15' E 113°35'0 0.0
2014-Oct-21 16:33N 22°15' E 113°35'0 0.0
2014-Oct-21 15:33N 22°15' E 113°35'0 0.0
2014-Oct-21 14:33N 22°15' E 113°35'4 4.3
2014-Oct-21 13:33N 22°17' E 113°39'1918.6
2014-Oct-21 12:33N 22°29' E 113°55'0 0.0
2014-Oct-21 11:33N 22°29' E 113°55'1918.2
2014-Oct-21 10:30N 22°16' E 113°39'9 8.7
2014-Oct-21 09:28N 22°21' E 113°47'1011.4
2014-Oct-21 08:33N 22°29' E 113°55'0 0.0
2014-Oct-21 06:33N 22°29' E 113°55'3 1.6
2014-Oct-21 04:33N 22°26' E 113°54'3 2.6
2014-Oct-21 03:33N 22°23' E 113°54'1 1.4
2014-Oct-21 02:29N 22°21' E 113°55'7 7.9
2014-Oct-21 01:33N 22°29' E 113°55'7 5.3
2014-Oct-21 00:19N 22°22' E 113°55'7 8.7
2014-Oct-20 23:33N 22°29' E 113°55'0 0.0
2014-Oct-20 14:12N 22°29' E 113°55'0 0.0
2014-Oct-20 12:33N 22°29' E 113°55'0 0.0
2014-Oct-20 10:33N 22°29' E 113°55'7 5.1
2014-Oct-20 09:10N 22°22' E 113°55'711.6
2014-Oct-20 08:33N 22°29' E 113°55'1919.0
2014-Oct-20 07:33N 22°16' E 113°39'4 3.7
2014-Oct-20 06:33N 22°18' E 113°42'1414.3
2014-Oct-20 05:34N 22°27' E 113°54'2121.3
2014-Oct-20 04:33N 22°14' E 113°36'1615.8
2014-Oct-20 03:32N 22°24' E 113°50'2 2.1
2014-Oct-20 02:33N 22°22' E 113°49'1514.5
2014-Oct-20 01:32N 22°14' E 113°35'1818.7
2014-Oct-20 00:33N 22°25' E 113°52'5 4.9
2014-Oct-19 23:33N 22°29' E 113°55'0 0.0
2014-Oct-19 13:18N 22°29' E 113°55'1417.7
2014-Oct-19 12:32N 22°19' E 113°44'9 9.7
2014-Oct-19 11:33N 22°14' E 113°35'2018.4
2014-Oct-19 10:27N 22°26' E 113°53'1 1.0
2014-Oct-19 09:31N 22°26' E 113°53'2020.5
2014-Oct-19 08:33N 22°14' E 113°35'1212.0
2014-Oct-19 07:33N 22°21' E 113°46'7 7.4
2014-Oct-19 06:34N 22°25' E 113°53'1919.3
2014-Oct-19 05:33N 22°14' E 113°35'1312.6
2014-Oct-19 04:33N 22°21' E 113°47'10 9.7
2014-Oct-19 03:33N 22°28' E 113°55'4 3.0
2014-Oct-19 02:20N 22°24' E 113°54'5 6.2
2014-Oct-19 01:33N 22°29' E 113°55'0 0.0
2014-Oct-18 23:33N 22°29' E 113°55'0 0.0
2014-Oct-18 14:05N 22°29' E 113°55'2 1.1
2014-Oct-18 12:33N 22°27' E 113°54'2 0.8
2014-Oct-18 10:33N 22°29' E 113°55'0 0.0
2014-Oct-18 08:33N 22°29' E 113°55'0 0.0
2014-Oct-18 06:34N 22°29' E 113°55'2 1.1
2014-Oct-18 04:33N 22°27' E 113°54'0 0.2
2014-Oct-18 03:33N 22°26' E 113°54'3 2.7
2014-Oct-18 02:29N 22°24' E 113°54'5 5.6
2014-Oct-18 01:33N 22°29' E 113°55'4 0.3
2014-Oct-17 12:33N 22°25' E 113°54'4 3.7
2014-Oct-17 11:33N 22°29' E 113°55'9 9.0
2014-Oct-17 10:33N 22°22' E 113°48'1413.8
2014-Oct-17 09:32N 22°14' E 113°35'1313.0
2014-Oct-17 08:32N 22°21' E 113°47'7 6.7
2014-Oct-17 07:33N 22°25' E 113°53'2019.4
2014-Oct-17 06:33N 22°14' E 113°35'1312.8
2014-Oct-17 05:33N 22°21' E 113°47'7 6.9
2014-Oct-17 04:33N 22°25' E 113°53'1918.5
2014-Oct-17 03:31N 22°14' E 113°35'1313.3
2014-Oct-17 02:31N 22°22' E 113°47'6 6.5
2014-Oct-17 01:34N 22°25' E 113°53'1918.2
2014-Oct-17 00:30N 22°14' E 113°35'0 0.0
2014-Oct-16 23:33N 22°14' E 113°35'2 0.2
2014-Oct-16 13:33N 22°16' E 113°37'2120.9
2014-Oct-16 12:33N 22°28' E 113°55'9 6.9
2014-Oct-16 11:19N 22°22' E 113°48'1414.8
2014-Oct-16 10:20N 22°14' E 113°35'1 1.9
2014-Oct-16 09:33N 22°15' E 113°37'2121.1
2014-Oct-16 08:33N 22°28' E 113°55'1514.3
2014-Oct-16 07:31N 22°18' E 113°42'3 2.8
2014-Oct-16 06:33N 22°17' E 113°40'  
Track history (hours):
 
Tides and Currents Weather Stations Pressure Air Temp Water Temp Dewpoint Dewpoint Depression Visibility Wind Speed Wind Dir Waves Ship Positions

Dong Fang Chun

Last reported at 2014-Oct-26 06:33 UTC. Time now 2014-Oct-26 07:00 UTC.
Position N 22°16' E 113°39'.

Length 23 m; draft 1.4 m.

Type: High speed craft. MMSI: 412461320.

Date/timePositionNaut miles runAvg speedWind from/ knotsBaromVisibWave heightAir tempDewpointWater temp
2014-Oct-26 06:33N 22°16' E 113°39'1919.2
2014-Oct-26 05:33N 22°29' E 113°55'2019.8
2014-Oct-26 04:33N 22°16' E 113°38'10 9.8
2014-Oct-26 03:33N 22°21' E 113°47'9 9.1
2014-Oct-26 02:33N 22°27' E 113°54'2216.0
2014-Oct-26 01:12N 22°14' E 113°35'1320.3
2014-Oct-26 00:33N 22°21' E 113°47'1010.0
2014-Oct-25 23:33N 22°29' E 113°55'0 0.0
2014-Oct-25 22:33N 22°29' E 113°55'0 0.0
2014-Oct-25 21:33N 22°29' E 113°55'0 0.0
2014-Oct-25 20:33N 22°29' E 113°55'0 0.0
2014-Oct-25 19:33N 22°29' E 113°55'0 0.0
2014-Oct-25 18:33N 22°29' E 113°55'0 0.0
2014-Oct-25 17:33N 22°29' E 113°55'0 0.0
2014-Oct-25 16:33N 22°29' E 113°55'0 0.0
2014-Oct-25 15:33N 22°29' E 113°55'0 0.0
2014-Oct-25 14:33N 22°29' E 113°55'4 2.2
2014-Oct-25 12:32N 22°24' E 113°54'4 2.2
2014-Oct-25 10:33N 22°29' E 113°55'0 0.0
2014-Oct-25 08:34N 22°29' E 113°55'0 0.1
2014-Oct-25 07:33N 22°29' E 113°55'0 0.0
2014-Oct-25 06:33N 22°29' E 113°55'1514.4
2014-Oct-25 05:30N 22°19' E 113°42'6 6.4
2014-Oct-25 04:34N 22°15' E 113°37'2121.1
2014-Oct-25 03:33N 22°29' E 113°55'1513.5
2014-Oct-25 02:28N 22°19' E 113°43'5 5.5
2014-Oct-25 01:31N 22°16' E 113°38'2020.4
2014-Oct-25 00:33N 22°29' E 113°55'0 0.1
2014-Oct-24 23:33N 22°29' E 113°55'0 0.0
2014-Oct-24 22:33N 22°29' E 113°55'0 0.0
2014-Oct-24 21:33N 22°29' E 113°55'0 0.0
2014-Oct-24 20:33N 22°29' E 113°55'0 0.0
2014-Oct-24 19:32N 22°29' E 113°55'0 0.0
2014-Oct-24 18:33N 22°29' E 113°55'0 0.0
2014-Oct-24 17:33N 22°29' E 113°55'0 0.0
2014-Oct-24 16:33N 22°29' E 113°55'0 0.0
2014-Oct-24 15:33N 22°29' E 113°55'0 0.0
2014-Oct-24 14:33N 22°29' E 113°55'2 1.2
2014-Oct-24 12:33N 22°26' E 113°54'2 1.2
2014-Oct-24 10:34N 22°29' E 113°55'0 0.0
2014-Oct-24 08:33N 22°29' E 113°55'3 3.4
2014-Oct-24 07:33N 22°26' E 113°53'2020.1
2014-Oct-24 06:33N 22°14' E 113°35'1212.3
2014-Oct-24 05:33N 22°21' E 113°47'9 8.8
2014-Oct-24 04:33N 22°27' E 113°54'2120.7
2014-Oct-24 03:33N 22°14' E 113°35'1212.5
2014-Oct-24 02:33N 22°21' E 113°47'1110.7
2014-Oct-24 01:33N 22°29' E 113°55'5 3.1
2014-Oct-24 00:05N 22°24' E 113°54'5 8.8
2014-Oct-23 23:33N 22°29' E 113°55'0 0.0
2014-Oct-23 22:33N 22°29' E 113°55'0 0.0
2014-Oct-23 21:33N 22°29' E 113°55'0 0.0
2014-Oct-23 20:33N 22°29' E 113°55'0 0.0
2014-Oct-23 19:33N 22°29' E 113°55'0 0.0
2014-Oct-23 18:33N 22°29' E 113°55'0 0.0
2014-Oct-23 17:33N 22°29' E 113°55'0 0.0
2014-Oct-23 16:34N 22°29' E 113°55'0 0.0
2014-Oct-23 15:33N 22°29' E 113°55'0 0.0
2014-Oct-23 14:33N 22°29' E 113°55'4 1.9
2014-Oct-23 12:32N 22°25' E 113°54'4 2.0
2014-Oct-23 10:34N 22°29' E 113°55'0 0.0
2014-Oct-23 08:33N 22°29' E 113°55'0 0.1
2014-Oct-23 07:33N 22°29' E 113°55'4 4.4
2014-Oct-23 06:34N 22°25' E 113°52'1918.8
2014-Oct-23 05:33N 22°14' E 113°35'1212.4
2014-Oct-23 04:34N 22°21' E 113°46'9 8.6
2014-Oct-23 03:33N 22°26' E 113°54'2120.8
2014-Oct-23 02:33N 22°14' E 113°35'1312.9
2014-Oct-23 01:33N 22°21' E 113°47'1010.3
2014-Oct-23 00:33N 22°29' E 113°55'0 0.0
2014-Oct-22 23:33N 22°29' E 113°55'0 0.0
2014-Oct-22 22:33N 22°29' E 113°55'0 0.0
2014-Oct-22 21:33N 22°29' E 113°55'0 0.0
2014-Oct-22 20:33N 22°29' E 113°55'0 0.0
2014-Oct-22 12:19N 22°29' E 113°55'2 2.8
2014-Oct-22 11:33N 22°27' E 113°54'2120.9
2014-Oct-22 10:33N 22°14' E 113°35'0 0.0
2014-Oct-22 09:33N 22°14' E 113°35'1212.6
2014-Oct-22 08:33N 22°21' E 113°47'7 6.6
2014-Oct-22 07:33N 22°25' E 113°52'1919.1
2014-Oct-22 06:33N 22°14' E 113°35'1212.1
2014-Oct-22 05:32N 22°21' E 113°47'7 7.1
2014-Oct-22 04:33N 22°25' E 113°53'1918.3
2014-Oct-22 03:30N 22°14' E 113°35'1313.8
2014-Oct-22 02:33N 22°21' E 113°47'7 7.4
2014-Oct-22 01:33N 22°26' E 113°53'2020.4
2014-Oct-22 00:33N 22°14' E 113°35'0 0.0
2014-Oct-21 23:31N 22°15' E 113°35'0 0.0
2014-Oct-21 22:33N 22°15' E 113°35'0 0.0
2014-Oct-21 21:33N 22°15' E 113°35'0 0.0
2014-Oct-21 20:25N 22°15' E 113°35'0 0.0
2014-Oct-21 19:33N 22°15' E 113°35'0 0.0
2014-Oct-21 18:09N 22°15' E 113°35'0 0.0
2014-Oct-21 17:33N 22°15' E 113°35'0 0.0
2014-Oct-21 16:33N 22°15' E 113°35'0 0.0
2014-Oct-21 15:33N 22°15' E 113°35'0 0.0
2014-Oct-21 14:33N 22°15' E 113°35'4 4.3
2014-Oct-21 13:33N 22°17' E 113°39'1918.6
2014-Oct-21 12:33N 22°29' E 113°55'0 0.0
2014-Oct-21 11:33N 22°29' E 113°55'1918.2
2014-Oct-21 10:30N 22°16' E 113°39'9 8.7
2014-Oct-21 09:28N 22°21' E 113°47'1011.4
2014-Oct-21 08:33N 22°29' E 113°55'0 0.0
2014-Oct-21 06:33N 22°29' E 113°55'3 1.6
2014-Oct-21 04:33N 22°26' E 113°54'3 2.6
2014-Oct-21 03:33N 22°23' E 113°54'1 1.4
2014-Oct-21 02:29N 22°21' E 113°55'7 7.9
2014-Oct-21 01:33N 22°29' E 113°55'7 5.3
2014-Oct-21 00:19N 22°22' E 113°55'7 8.7
2014-Oct-20 23:33N 22°29' E 113°55'0 0.0
2014-Oct-20 14:12N 22°29' E 113°55'0 0.0
2014-Oct-20 12:33N 22°29' E 113°55'0 0.0
2014-Oct-20 10:33N 22°29' E 113°55'7 5.1
2014-Oct-20 09:10N 22°22' E 113°55'711.6
2014-Oct-20 08:33N 22°29' E 113°55'1919.0
2014-Oct-20 07:33N 22°16' E 113°39'4 3.7
2014-Oct-20 06:33N 22°18' E 113°42'1414.3
2014-Oct-20 05:34N 22°27' E 113°54'2121.3
2014-Oct-20 04:33N 22°14' E 113°36'1615.8
2014-Oct-20 03:32N 22°24' E 113°50'2 2.1
2014-Oct-20 02:33N 22°22' E 113°49'1514.5
2014-Oct-20 01:32N 22°14' E 113°35'1818.7
2014-Oct-20 00:33N 22°25' E 113°52'5 4.9
2014-Oct-19 23:33N 22°29' E 113°55'0 0.0
2014-Oct-19 13:18N 22°29' E 113°55'1417.7
2014-Oct-19 12:32N 22°19' E 113°44'9 9.7
2014-Oct-19 11:33N 22°14' E 113°35'2018.4
2014-Oct-19 10:27N 22°26' E 113°53'1 1.0
2014-Oct-19 09:31N 22°26' E 113°53'2020.5
2014-Oct-19 08:33N 22°14' E 113°35'1212.0
2014-Oct-19 07:33N 22°21' E 113°46'7 7.4
2014-Oct-19 06:34N 22°25' E 113°53'1919.3
2014-Oct-19 05:33N 22°14' E 113°35'1312.6
2014-Oct-19 04:33N 22°21' E 113°47'10 9.7
2014-Oct-19 03:33N 22°28' E 113°55'4 3.0
2014-Oct-19 02:20N 22°24' E 113°54'5 6.2
2014-Oct-19 01:33N 22°29' E 113°55'0 0.0
2014-Oct-18 23:33N 22°29' E 113°55'0 0.0
2014-Oct-18 14:05N 22°29' E 113°55'2 1.1
2014-Oct-18 12:33N 22°27' E 113°54'2 0.8
2014-Oct-18 10:33N 22°29' E 113°55'0 0.0
2014-Oct-18 08:33N 22°29' E 113°55'0 0.0
2014-Oct-18 06:34N 22°29' E 113°55'2 1.1
2014-Oct-18 04:33N 22°27' E 113°54'0 0.2
2014-Oct-18 03:33N 22°26' E 113°54'3 2.7
2014-Oct-18 02:29N 22°24' E 113°54'5 5.6
2014-Oct-18 01:33N 22°29' E 113°55'4 0.3
2014-Oct-17 12:33N 22°25' E 113°54'4 3.7
2014-Oct-17 11:33N 22°29' E 113°55'9 9.0
2014-Oct-17 10:33N 22°22' E 113°48'1413.8
2014-Oct-17 09:32N 22°14' E 113°35'1313.0
2014-Oct-17 08:32N 22°21' E 113°47'7 6.7
2014-Oct-17 07:33N 22°25' E 113°53'2019.4
2014-Oct-17 06:33N 22°14' E 113°35'1312.8
2014-Oct-17 05:33N 22°21' E 113°47'7 6.9
2014-Oct-17 04:33N 22°25' E 113°53'1918.5
2014-Oct-17 03:31N 22°14' E 113°35'1313.3
2014-Oct-17 02:31N 22°22' E 113°47'6 6.5
2014-Oct-17 01:34N 22°25' E 113°53'1918.2
2014-Oct-17 00:30N 22°14' E 113°35'0 0.0
2014-Oct-16 23:33N 22°14' E 113°35'2 0.2
2014-Oct-16 13:33N 22°16' E 113°37'2120.9
2014-Oct-16 12:33N 22°28' E 113°55'9 6.9
2014-Oct-16 11:19N 22°22' E 113°48'1414.8
2014-Oct-16 10:20N 22°14' E 113°35'1 1.9
2014-Oct-16 09:33N 22°15' E 113°37'2121.1
2014-Oct-16 08:33N 22°28' E 113°55'1514.3
2014-Oct-16 07:31N 22°18' E 113°42'3 2.8
2014-Oct-16 06:33N 22°17' E 113°40'  

Dump ship's entire track history